sensor_id;sensor_type;location;lat;lon;timestamp;P1;P2;P0
46885;PMS5003;32622;48.202;11.326;2023-09-30T00:00:06;18;17;
46885;PMS5003;32622;48.202;11.326;2023-09-30T00:02:09;18;17;
46885;PMS5003;32622;48.202;11.326;2023-09-30T00:04:11;18;17;
46885;PMS5003;32622;48.202;11.326;2023-09-30T00:06:13;19;18;
46885;PMS5003;32622;48.202;11.326;2023-09-30T00:08:15;19;18;
46885;PMS5003;32622;48.202;11.326;2023-09-30T00:10:18;19;18;
46885;PMS5003;32622;48.202;11.326;2023-09-30T00:12:20;18;17;
46885;PMS5003;32622;48.202;11.326;2023-09-30T00:14:22;18;17;
46885;PMS5003;32622;48.202;11.326;2023-09-30T00:16:25;20;19;
46885;PMS5003;32622;48.202;11.326;2023-09-30T00:18:27;20;19;
46885;PMS5003;32622;48.202;11.326;2023-09-30T00:20:29;20;19;
46885;PMS5003;32622;48.202;11.326;2023-09-30T00:22:31;21;19;
46885;PMS5003;32622;48.202;11.326;2023-09-30T00:24:33;21;19;
46885;PMS5003;32622;48.202;11.326;2023-09-30T00:26:35;21;19;
46885;PMS5003;32622;48.202;11.326;2023-09-30T00:28:37;21;19;
46885;PMS5003;32622;48.202;11.326;2023-09-30T00:30:40;20;18;
46885;PMS5003;32622;48.202;11.326;2023-09-30T00:32:42;19;18;
46885;PMS5003;32622;48.202;11.326;2023-09-30T00:34:44;18;17;
46885;PMS5003;32622;48.202;11.326;2023-09-30T00:36:46;19;16;
46885;PMS5003;32622;48.202;11.326;2023-09-30T00:38:48;18;16;
46885;PMS5003;32622;48.202;11.326;2023-09-30T00:40:50;18;16;
46885;PMS5003;32622;48.202;11.326;2023-09-30T00:42:52;17;16;
46885;PMS5003;32622;48.202;11.326;2023-09-30T00:44:54;17;16;
46885;PMS5003;32622;48.202;11.326;2023-09-30T00:46:56;17;15;
46885;PMS5003;32622;48.202;11.326;2023-09-30T00:48:59;17;15;
46885;PMS5003;32622;48.202;11.326;2023-09-30T00:51:02;17;15;
46885;PMS5003;32622;48.202;11.326;2023-09-30T00:53:05;17;16;
46885;PMS5003;32622;48.202;11.326;2023-09-30T00:55:07;17;16;
46885;PMS5003;32622;48.202;11.326;2023-09-30T00:57:10;17;16;
46885;PMS5003;32622;48.202;11.326;2023-09-30T00:59:13;17;16;
46885;PMS5003;32622;48.202;11.326;2023-09-30T01:01:16;17;16;
46885;PMS5003;32622;48.202;11.326;2023-09-30T01:03:19;17;16;
46885;PMS5003;32622;48.202;11.326;2023-09-30T01:05:21;17;16;
46885;PMS5003;32622;48.202;11.326;2023-09-30T01:07:23;17;16;
46885;PMS5003;32622;48.202;11.326;2023-09-30T01:09:25;17;16;
46885;PMS5003;32622;48.202;11.326;2023-09-30T01:11:28;17;16;
46885;PMS5003;32622;48.202;11.326;2023-09-30T01:13:32;17;16;
46885;PMS5003;32622;48.202;11.326;2023-09-30T01:15:34;17;16;
46885;PMS5003;32622;48.202;11.326;2023-09-30T01:17:36;16;16;
46885;PMS5003;32622;48.202;11.326;2023-09-30T01:19:39;16;16;
46885;PMS5003;32622;48.202;11.326;2023-09-30T01:21:41;16;16;
46885;PMS5003;32622;48.202;11.326;2023-09-30T01:23:43;16;16;
46885;PMS5003;32622;48.202;11.326;2023-09-30T01:25:45;16;16;
46885;PMS5003;32622;48.202;11.326;2023-09-30T01:27:48;16;16;
46885;PMS5003;32622;48.202;11.326;2023-09-30T01:29:50;15;15;
46885;PMS5003;32622;48.202;11.326;2023-09-30T01:31:52;15;15;
46885;PMS5003;32622;48.202;11.326;2023-09-30T01:33:54;15;15;
46885;PMS5003;32622;48.202;11.326;2023-09-30T01:35:56;15;15;
46885;PMS5003;32622;48.202;11.326;2023-09-30T01:37:58;15;15;
46885;PMS5003;32622;48.202;11.326;2023-09-30T01:40:00;15;15;
46885;PMS5003;32622;48.202;11.326;2023-09-30T01:42:03;16;16;
46885;PMS5003;32622;48.202;11.326;2023-09-30T01:44:05;16;16;
46885;PMS5003;32622;48.202;11.326;2023-09-30T01:46:08;16;16;
46885;PMS5003;32622;48.202;11.326;2023-09-30T01:48:10;16;16;
46885;PMS5003;32622;48.202;11.326;2023-09-30T01:50:12;16;16;
46885;PMS5003;32622;48.202;11.326;2023-09-30T01:52:14;16;16;
46885;PMS5003;32622;48.202;11.326;2023-09-30T01:54:16;15;15;
46885;PMS5003;32622;48.202;11.326;2023-09-30T01:56:18;15;15;
46885;PMS5003;32622;48.202;11.326;2023-09-30T01:58:20;15;15;
46885;PMS5003;32622;48.202;11.326;2023-09-30T02:00:23;15;15;
46885;PMS5003;32622;48.202;11.326;2023-09-30T02:02:25;15;15;
46885;PMS5003;32622;48.202;11.326;2023-09-30T02:04:27;15;15;
46885;PMS5003;32622;48.202;11.326;2023-09-30T02:06:29;14;14;
46885;PMS5003;32622;48.202;11.326;2023-09-30T02:08:31;14;14;
46885;PMS5003;32622;48.202;11.326;2023-09-30T02:10:33;14;14;
46885;PMS5003;32622;48.202;11.326;2023-09-30T02:12:36;15;15;
46885;PMS5003;32622;48.202;11.326;2023-09-30T02:14:38;15;15;
46885;PMS5003;32622;48.202;11.326;2023-09-30T02:16:40;15;15;
46885;PMS5003;32622;48.202;11.326;2023-09-30T02:18:43;15;15;
46885;PMS5003;32622;48.202;11.326;2023-09-30T02:20:45;15;15;
46885;PMS5003;32622;48.202;11.326;2023-09-30T02:22:48;15;15;
46885;PMS5003;32622;48.202;11.326;2023-09-30T02:24:50;15;15;
46885;PMS5003;32622;48.202;11.326;2023-09-30T02:26:52;15;15;
46885;PMS5003;32622;48.202;11.326;2023-09-30T02:28:54;15;15;
46885;PMS5003;32622;48.202;11.326;2023-09-30T02:30:56;15;15;
46885;PMS5003;32622;48.202;11.326;2023-09-30T02:32:58;15;15;
46885;PMS5003;32622;48.202;11.326;2023-09-30T02:35:00;15;15;
46885;PMS5003;32622;48.202;11.326;2023-09-30T02:37:03;16;16;
46885;PMS5003;32622;48.202;11.326;2023-09-30T02:39:05;16;16;
46885;PMS5003;32622;48.202;11.326;2023-09-30T02:41:07;16;16;
46885;PMS5003;32622;48.202;11.326;2023-09-30T02:43:09;15;15;
46885;PMS5003;32622;48.202;11.326;2023-09-30T02:45:11;15;15;
46885;PMS5003;32622;48.202;11.326;2023-09-30T02:47:14;15;15;
46885;PMS5003;32622;48.202;11.326;2023-09-30T02:49:16;15;15;
46885;PMS5003;32622;48.202;11.326;2023-09-30T02:51:18;15;15;
46885;PMS5003;32622;48.202;11.326;2023-09-30T02:53:21;15;15;
46885;PMS5003;32622;48.202;11.326;2023-09-30T02:55:23;16;16;
46885;PMS5003;32622;48.202;11.326;2023-09-30T02:57:25;16;16;
46885;PMS5003;32622;48.202;11.326;2023-09-30T02:59:27;16;16;
46885;PMS5003;32622;48.202;11.326;2023-09-30T03:01:29;17;17;
46885;PMS5003;32622;48.202;11.326;2023-09-30T03:03:32;17;17;
46885;PMS5003;32622;48.202;11.326;2023-09-30T03:05:34;17;17;
46885;PMS5003;32622;48.202;11.326;2023-09-30T03:07:36;18;17;
46885;PMS5003;32622;48.202;11.326;2023-09-30T03:09:38;18;17;
46885;PMS5003;32622;48.202;11.326;2023-09-30T03:11:40;18;17;
46885;PMS5003;32622;48.202;11.326;2023-09-30T03:13:42;18;17;
46885;PMS5003;32622;48.202;11.326;2023-09-30T03:15:44;18;17;
46885;PMS5003;32622;48.202;11.326;2023-09-30T03:17:47;18;17;
46885;PMS5003;32622;48.202;11.326;2023-09-30T03:19:49;19;18;
46885;PMS5003;32622;48.202;11.326;2023-09-30T03:21:52;19;18;
46885;PMS5003;32622;48.202;11.326;2023-09-30T03:23:54;19;18;
46885;PMS5003;32622;48.202;11.326;2023-09-30T03:25:56;19;18;
46885;PMS5003;32622;48.202;11.326;2023-09-30T03:27:58;19;18;
46885;PMS5003;32622;48.202;11.326;2023-09-30T03:30:00;19;18;
46885;PMS5003;32622;48.202;11.326;2023-09-30T03:32:03;19;18;
46885;PMS5003;32622;48.202;11.326;2023-09-30T03:34:05;19;18;
46885;PMS5003;32622;48.202;11.326;2023-09-30T03:36:08;19;18;
46885;PMS5003;32622;48.202;11.326;2023-09-30T03:38:10;18;18;
46885;PMS5003;32622;48.202;11.326;2023-09-30T03:40:13;18;18;
46885;PMS5003;32622;48.202;11.326;2023-09-30T03:42:16;18;18;
46885;PMS5003;32622;48.202;11.326;2023-09-30T03:44:18;18;17;
46885;PMS5003;32622;48.202;11.326;2023-09-30T03:46:20;18;17;
46885;PMS5003;32622;48.202;11.326;2023-09-30T03:48:22;18;17;
46885;PMS5003;32622;48.202;11.326;2023-09-30T03:50:25;18;18;
46885;PMS5003;32622;48.202;11.326;2023-09-30T03:52:27;18;18;
46885;PMS5003;32622;48.202;11.326;2023-09-30T03:54:29;18;18;
46885;PMS5003;32622;48.202;11.326;2023-09-30T03:56:31;17;17;
46885;PMS5003;32622;48.202;11.326;2023-09-30T03:58:33;17;17;
46885;PMS5003;32622;48.202;11.326;2023-09-30T04:00:35;17;17;
46885;PMS5003;32622;48.202;11.326;2023-09-30T04:02:38;18;18;
46885;PMS5003;32622;48.202;11.326;2023-09-30T04:04:40;18;18;
46885;PMS5003;32622;48.202;11.326;2023-09-30T04:06:42;18;18;
46885;PMS5003;32622;48.202;11.326;2023-09-30T04:08:44;17;17;
46885;PMS5003;32622;48.202;11.326;2023-09-30T04:10:46;17;17;
46885;PMS5003;32622;48.202;11.326;2023-09-30T04:12:48;17;17;
46885;PMS5003;32622;48.202;11.326;2023-09-30T04:14:50;18;18;
46885;PMS5003;32622;48.202;11.326;2023-09-30T04:16:53;18;18;
46885;PMS5003;32622;48.202;11.326;2023-09-30T04:18:55;18;18;
46885;PMS5003;32622;48.202;11.326;2023-09-30T04:20:57;16;16;
46885;PMS5003;32622;48.202;11.326;2023-09-30T04:22:59;16;16;
46885;PMS5003;32622;48.202;11.326;2023-09-30T04:25:02;16;16;
46885;PMS5003;32622;48.202;11.326;2023-09-30T04:27:04;16;16;
46885;PMS5003;32622;48.202;11.326;2023-09-30T04:29:06;16;16;
46885;PMS5003;32622;48.202;11.326;2023-09-30T04:31:08;16;16;
46885;PMS5003;32622;48.202;11.326;2023-09-30T04:33:10;16;16;
46885;PMS5003;32622;48.202;11.326;2023-09-30T04:35:13;16;16;
46885;PMS5003;32622;48.202;11.326;2023-09-30T04:37:15;16;16;
46885;PMS5003;32622;48.202;11.326;2023-09-30T04:39:17;15;15;
46885;PMS5003;32622;48.202;11.326;2023-09-30T04:41:19;15;15;
46885;PMS5003;32622;48.202;11.326;2023-09-30T04:43:22;15;15;
46885;PMS5003;32622;48.202;11.326;2023-09-30T04:45:25;16;16;
46885;PMS5003;32622;48.202;11.326;2023-09-30T04:47:27;16;16;
46885;PMS5003;32622;48.202;11.326;2023-09-30T04:49:29;16;16;
46885;PMS5003;32622;48.202;11.326;2023-09-30T04:51:31;16;16;
46885;PMS5003;32622;48.202;11.326;2023-09-30T04:53:33;16;16;
46885;PMS5003;32622;48.202;11.326;2023-09-30T04:55:36;16;16;
46885;PMS5003;32622;48.202;11.326;2023-09-30T04:57:38;16;16;
46885;PMS5003;32622;48.202;11.326;2023-09-30T04:59:40;16;16;
46885;PMS5003;32622;48.202;11.326;2023-09-30T05:01:42;16;16;
46885;PMS5003;32622;48.202;11.326;2023-09-30T05:03:44;15;15;
46885;PMS5003;32622;48.202;11.326;2023-09-30T05:05:46;15;15;
46885;PMS5003;32622;48.202;11.326;2023-09-30T05:07:48;15;15;
46885;PMS5003;32622;48.202;11.326;2023-09-30T05:09:50;15;15;
46885;PMS5003;32622;48.202;11.326;2023-09-30T05:11:52;15;15;
46885;PMS5003;32622;48.202;11.326;2023-09-30T05:13:55;15;15;
46885;PMS5003;32622;48.202;11.326;2023-09-30T05:15:57;14;14;
46885;PMS5003;32622;48.202;11.326;2023-09-30T05:17:59;14;14;
46885;PMS5003;32622;48.202;11.326;2023-09-30T05:20:01;14;14;
46885;PMS5003;32622;48.202;11.326;2023-09-30T05:22:03;14;14;
46885;PMS5003;32622;48.202;11.326;2023-09-30T05:24:06;14;14;
46885;PMS5003;32622;48.202;11.326;2023-09-30T05:26:08;14;14;
46885;PMS5003;32622;48.202;11.326;2023-09-30T05:28:11;15;15;
46885;PMS5003;32622;48.202;11.326;2023-09-30T05:30:13;15;15;
46885;PMS5003;32622;48.202;11.326;2023-09-30T05:32:15;15;15;
46885;PMS5003;32622;48.202;11.326;2023-09-30T05:34:17;15;15;
46885;PMS5003;32622;48.202;11.326;2023-09-30T05:36:19;15;15;
46885;PMS5003;32622;48.202;11.326;2023-09-30T05:38:21;15;15;
46885;PMS5003;32622;48.202;11.326;2023-09-30T05:40:24;15;15;
46885;PMS5003;32622;48.202;11.326;2023-09-30T05:42:26;16;16;
46885;PMS5003;32622;48.202;11.326;2023-09-30T05:44:28;16;16;
46885;PMS5003;32622;48.202;11.326;2023-09-30T05:46:30;16;16;
46885;PMS5003;32622;48.202;11.326;2023-09-30T05:48:32;15;15;
46885;PMS5003;32622;48.202;11.326;2023-09-30T05:50:35;15;15;
46885;PMS5003;32622;48.202;11.326;2023-09-30T05:52:37;14;14;
46885;PMS5003;32622;48.202;11.326;2023-09-30T05:54:39;14;14;
46885;PMS5003;32622;48.202;11.326;2023-09-30T05:56:41;14;14;
46885;PMS5003;32622;48.202;11.326;2023-09-30T05:58:43;14;14;
46885;PMS5003;32622;48.202;11.326;2023-09-30T06:00:46;14;14;
46885;PMS5003;32622;48.202;11.326;2023-09-30T06:02:48;14;14;
46885;PMS5003;32622;48.202;11.326;2023-09-30T06:04:50;14;14;
46885;PMS5003;32622;48.202;11.326;2023-09-30T06:06:52;14;14;
46885;PMS5003;32622;48.202;11.326;2023-09-30T06:08:55;14;14;
46885;PMS5003;32622;48.202;11.326;2023-09-30T06:10:57;15;15;
46885;PMS5003;32622;48.202;11.326;2023-09-30T06:12:59;15;15;
46885;PMS5003;32622;48.202;11.326;2023-09-30T06:15:01;15;15;
46885;PMS5003;32622;48.202;11.326;2023-09-30T06:17:04;16;16;
46885;PMS5003;32622;48.202;11.326;2023-09-30T06:19:06;16;16;
46885;PMS5003;32622;48.202;11.326;2023-09-30T06:21:08;16;16;
46885;PMS5003;32622;48.202;11.326;2023-09-30T06:23:10;16;16;
46885;PMS5003;32622;48.202;11.326;2023-09-30T06:25:12;16;16;
46885;PMS5003;32622;48.202;11.326;2023-09-30T06:27:15;16;16;
46885;PMS5003;32622;48.202;11.326;2023-09-30T06:29:17;15;15;
46885;PMS5003;32622;48.202;11.326;2023-09-30T06:31:19;15;15;
46885;PMS5003;32622;48.202;11.326;2023-09-30T06:33:21;15;15;
46885;PMS5003;32622;48.202;11.326;2023-09-30T06:35:23;16;16;
46885;PMS5003;32622;48.202;11.326;2023-09-30T06:37:26;16;16;
46885;PMS5003;32622;48.202;11.326;2023-09-30T06:39:28;16;16;
46885;PMS5003;32622;48.202;11.326;2023-09-30T06:41:30;16;16;
46885;PMS5003;32622;48.202;11.326;2023-09-30T06:43:32;16;16;
46885;PMS5003;32622;48.202;11.326;2023-09-30T06:45:35;16;16;
46885;PMS5003;32622;48.202;11.326;2023-09-30T06:47:39;18;17;
46885;PMS5003;32622;48.202;11.326;2023-09-30T06:49:41;18;17;
46885;PMS5003;32622;48.202;11.326;2023-09-30T06:51:44;18;17;
46885;PMS5003;32622;48.202;11.326;2023-09-30T06:53:46;17;16;
46885;PMS5003;32622;48.202;11.326;2023-09-30T06:55:48;17;16;
46885;PMS5003;32622;48.202;11.326;2023-09-30T06:57:50;17;16;
46885;PMS5003;32622;48.202;11.326;2023-09-30T06:59:52;18;17;
46885;PMS5003;32622;48.202;11.326;2023-09-30T07:01:54;18;17;
46885;PMS5003;32622;48.202;11.326;2023-09-30T07:03:56;18;17;
46885;PMS5003;32622;48.202;11.326;2023-09-30T07:05:58;18;17;
46885;PMS5003;32622;48.202;11.326;2023-09-30T07:08:01;18;17;
46885;PMS5003;32622;48.202;11.326;2023-09-30T07:10:04;18;17;
46885;PMS5003;32622;48.202;11.326;2023-09-30T07:12:07;18;17;
46885;PMS5003;32622;48.202;11.326;2023-09-30T07:14:09;18;17;
46885;PMS5003;32622;48.202;11.326;2023-09-30T07:16:12;18;17;
46885;PMS5003;32622;48.202;11.326;2023-09-30T07:18:14;18;17;
46885;PMS5003;32622;48.202;11.326;2023-09-30T07:20:16;18;17;
46885;PMS5003;32622;48.202;11.326;2023-09-30T07:22:18;18;17;
46885;PMS5003;32622;48.202;11.326;2023-09-30T07:24:20;19;17;
46885;PMS5003;32622;48.202;11.326;2023-09-30T07:26:23;19;17;
46885;PMS5003;32622;48.202;11.326;2023-09-30T07:28:26;19;17;
46885;PMS5003;32622;48.202;11.326;2023-09-30T07:30:28;19;17;
46885;PMS5003;32622;48.202;11.326;2023-09-30T07:32:30;19;17;
46885;PMS5003;32622;48.202;11.326;2023-09-30T07:34:32;19;17;
46885;PMS5003;32622;48.202;11.326;2023-09-30T07:36:34;19;17;
46885;PMS5003;32622;48.202;11.326;2023-09-30T07:38:36;19;17;
46885;PMS5003;32622;48.202;11.326;2023-09-30T07:40:38;19;17;
46885;PMS5003;32622;48.202;11.326;2023-09-30T07:42:40;20;18;
46885;PMS5003;32622;48.202;11.326;2023-09-30T07:44:42;20;18;
46885;PMS5003;32622;48.202;11.326;2023-09-30T07:46:44;20;18;
46885;PMS5003;32622;48.202;11.326;2023-09-30T07:48:47;18;17;
46885;PMS5003;32622;48.202;11.326;2023-09-30T07:50:49;18;17;
46885;PMS5003;32622;48.202;11.326;2023-09-30T07:52:51;18;17;
46885;PMS5003;32622;48.202;11.326;2023-09-30T07:54:53;19;17;
46885;PMS5003;32622;48.202;11.326;2023-09-30T07:56:55;19;17;
46885;PMS5003;32622;48.202;11.326;2023-09-30T07:58:57;19;17;
46885;PMS5003;32622;48.202;11.326;2023-09-30T08:00:59;19;18;
46885;PMS5003;32622;48.202;11.326;2023-09-30T08:03:01;19;18;
46885;PMS5003;32622;48.202;11.326;2023-09-30T08:05:05;19;18;
46885;PMS5003;32622;48.202;11.326;2023-09-30T08:07:08;19;18;
46885;PMS5003;32622;48.202;11.326;2023-09-30T08:09:11;19;18;
46885;PMS5003;32622;48.202;11.326;2023-09-30T08:11:14;19;18;
46885;PMS5003;32622;48.202;11.326;2023-09-30T08:13:16;19;17;
46885;PMS5003;32622;48.202;11.326;2023-09-30T08:15:18;19;17;
46885;PMS5003;32622;48.202;11.326;2023-09-30T08:17:20;19;17;
46885;PMS5003;32622;48.202;11.326;2023-09-30T08:19:23;18;17;
46885;PMS5003;32622;48.202;11.326;2023-09-30T08:21:25;18;17;
46885;PMS5003;32622;48.202;11.326;2023-09-30T08:23:27;18;17;
46885;PMS5003;32622;48.202;11.326;2023-09-30T08:25:31;17;17;
46885;PMS5003;32622;48.202;11.326;2023-09-30T08:27:33;17;17;
46885;PMS5003;32622;48.202;11.326;2023-09-30T08:29:35;17;17;
46885;PMS5003;32622;48.202;11.326;2023-09-30T08:31:37;17;16;
46885;PMS5003;32622;48.202;11.326;2023-09-30T08:33:40;17;16;
46885;PMS5003;32622;48.202;11.326;2023-09-30T08:35:42;17;16;
46885;PMS5003;32622;48.202;11.326;2023-09-30T08:37:44;16;15;
46885;PMS5003;32622;48.202;11.326;2023-09-30T08:39:46;16;15;
46885;PMS5003;32622;48.202;11.326;2023-09-30T08:41:49;16;15;
46885;PMS5003;32622;48.202;11.326;2023-09-30T08:43:52;15;14;
46885;PMS5003;32622;48.202;11.326;2023-09-30T08:46:00;15;14;
46885;PMS5003;32622;48.202;11.326;2023-09-30T08:48:05;15;14;
46885;PMS5003;32622;48.202;11.326;2023-09-30T08:50:08;17;16;
46885;PMS5003;32622;48.202;11.326;2023-09-30T08:52:11;17;16;
46885;PMS5003;32622;48.202;11.326;2023-09-30T08:54:14;17;16;
46885;PMS5003;32622;48.202;11.326;2023-09-30T08:56:16;18;17;
46885;PMS5003;32622;48.202;11.326;2023-09-30T08:58:19;18;17;
46885;PMS5003;32622;48.202;11.326;2023-09-30T09:00:26;18;17;
46885;PMS5003;32622;48.202;11.326;2023-09-30T09:02:28;18;16;
46885;PMS5003;32622;48.202;11.326;2023-09-30T09:04:30;18;16;
46885;PMS5003;32622;48.202;11.326;2023-09-30T09:06:33;18;16;
46885;PMS5003;32622;48.202;11.326;2023-09-30T09:08:35;19;16;
46885;PMS5003;32622;48.202;11.326;2023-09-30T09:10:42;19;16;
46885;PMS5003;32622;48.202;11.326;2023-09-30T09:12:56;19;16;
46885;PMS5003;32622;48.202;11.326;2023-09-30T09:14:59;19;17;
46885;PMS5003;32622;48.202;11.326;2023-09-30T09:17:01;19;17;
46885;PMS5003;32622;48.202;11.326;2023-09-30T09:19:19;19;17;
46885;PMS5003;32622;48.202;11.326;2023-09-30T09:21:21;19;17;
46885;PMS5003;32622;48.202;11.326;2023-09-30T09:23:23;19;17;
46885;PMS5003;32622;48.202;11.326;2023-09-30T09:25:26;19;17;
46885;PMS5003;32622;48.202;11.326;2023-09-30T09:27:28;19;17;
46885;PMS5003;32622;48.202;11.326;2023-09-30T09:29:36;19;17;
46885;PMS5003;32622;48.202;11.326;2023-09-30T09:31:38;19;17;
46885;PMS5003;32622;48.202;11.326;2023-09-30T09:33:40;18;17;
46885;PMS5003;32622;48.202;11.326;2023-09-30T09:35:43;18;17;
46885;PMS5003;32622;48.202;11.326;2023-09-30T09:37:54;18;17;
46885;PMS5003;32622;48.202;11.326;2023-09-30T09:39:57;18;17;
46885;PMS5003;32622;48.202;11.326;2023-09-30T09:41:59;18;17;
46885;PMS5003;32622;48.202;11.326;2023-09-30T09:44:01;18;17;
46885;PMS5003;32622;48.202;11.326;2023-09-30T09:46:07;18;17;
46885;PMS5003;32622;48.202;11.326;2023-09-30T09:48:09;18;17;
46885;PMS5003;32622;48.202;11.326;2023-09-30T09:50:12;18;17;
46885;PMS5003;32622;48.202;11.326;2023-09-30T09:52:15;16;15;
46885;PMS5003;32622;48.202;11.326;2023-09-30T09:54:19;16;15;
46885;PMS5003;32622;48.202;11.326;2023-09-30T09:56:22;16;15;
46885;PMS5003;32622;48.202;11.326;2023-09-30T09:58:25;16;15;
46885;PMS5003;32622;48.202;11.326;2023-09-30T10:00:28;16;15;
46885;PMS5003;32622;48.202;11.326;2023-09-30T10:02:31;16;15;
46885;PMS5003;32622;48.202;11.326;2023-09-30T10:04:34;16;14;
46885;PMS5003;32622;48.202;11.326;2023-09-30T10:06:37;16;14;
46885;PMS5003;32622;48.202;11.326;2023-09-30T10:08:41;16;14;
46885;PMS5003;32622;48.202;11.326;2023-09-30T10:10:46;14;14;
46885;PMS5003;32622;48.202;11.326;2023-09-30T10:12:49;14;14;
46885;PMS5003;32622;48.202;11.326;2023-09-30T10:14:51;14;14;
46885;PMS5003;32622;48.202;11.326;2023-09-30T10:16:53;13;13;
46885;PMS5003;32622;48.202;11.326;2023-09-30T10:19:12;13;13;
46885;PMS5003;32622;48.202;11.326;2023-09-30T10:21:15;13;13;
46885;PMS5003;32622;48.202;11.326;2023-09-30T10:23:20;13;13;
46885;PMS5003;32622;48.202;11.326;2023-09-30T10:25:33;13;13;
46885;PMS5003;32622;48.202;11.326;2023-09-30T10:27:36;13;13;
46885;PMS5003;32622;48.202;11.326;2023-09-30T10:29:39;14;14;
46885;PMS5003;32622;48.202;11.326;2023-09-30T10:31:49;14;14;
46885;PMS5003;32622;48.202;11.326;2023-09-30T10:36:26;13;13;
46885;PMS5003;32622;48.202;11.326;2023-09-30T10:38:37;13;13;
46885;PMS5003;32622;48.202;11.326;2023-09-30T10:40:40;13;13;
46885;PMS5003;32622;48.202;11.326;2023-09-30T10:42:46;13;13;
46885;PMS5003;32622;48.202;11.326;2023-09-30T10:44:49;13;13;
46885;PMS5003;32622;48.202;11.326;2023-09-30T10:46:51;13;13;
46885;PMS5003;32622;48.202;11.326;2023-09-30T10:48:54;13;13;
46885;PMS5003;32622;48.202;11.326;2023-09-30T10:50:57;13;13;
46885;PMS5003;32622;48.202;11.326;2023-09-30T10:53:03;13;13;
46885;PMS5003;32622;48.202;11.326;2023-09-30T10:55:05;14;14;
46885;PMS5003;32622;48.202;11.326;2023-09-30T10:57:10;14;14;
46885;PMS5003;32622;48.202;11.326;2023-09-30T10:59:17;14;14;
46885;PMS5003;32622;48.202;11.326;2023-09-30T11:01:20;14;14;
46885;PMS5003;32622;48.202;11.326;2023-09-30T11:03:23;14;14;
46885;PMS5003;32622;48.202;11.326;2023-09-30T11:05:25;14;14;
46885;PMS5003;32622;48.202;11.326;2023-09-30T11:07:27;16;15;
46885;PMS5003;32622;48.202;11.326;2023-09-30T11:09:31;16;15;
46885;PMS5003;32622;48.202;11.326;2023-09-30T11:11:37;16;15;
46885;PMS5003;32622;48.202;11.326;2023-09-30T11:13:40;16;15;
46885;PMS5003;32622;48.202;11.326;2023-09-30T11:15:42;16;15;
46885;PMS5003;32622;48.202;11.326;2023-09-30T11:17:45;16;15;
46885;PMS5003;32622;48.202;11.326;2023-09-30T11:19:47;17;16;
46885;PMS5003;32622;48.202;11.326;2023-09-30T11:21:50;17;16;
46885;PMS5003;32622;48.202;11.326;2023-09-30T11:23:52;17;16;
46885;PMS5003;32622;48.202;11.326;2023-09-30T11:25:55;17;16;
46885;PMS5003;32622;48.202;11.326;2023-09-30T11:28:11;17;16;
46885;PMS5003;32622;48.202;11.326;2023-09-30T11:30:15;17;16;
46885;PMS5003;32622;48.202;11.326;2023-09-30T11:32:23;18;16;
46885;PMS5003;32622;48.202;11.326;2023-09-30T11:34:31;18;16;
46885;PMS5003;32622;48.202;11.326;2023-09-30T11:36:34;18;16;
46885;PMS5003;32622;48.202;11.326;2023-09-30T11:38:37;18;17;
46885;PMS5003;32622;48.202;11.326;2023-09-30T11:40:57;18;17;
46885;PMS5003;32622;48.202;11.326;2023-09-30T11:43:07;18;17;
46885;PMS5003;32622;48.202;11.326;2023-09-30T11:45:25;20;18;
46885;PMS5003;32622;48.202;11.326;2023-09-30T11:47:28;20;18;
46885;PMS5003;32622;48.202;11.326;2023-09-30T11:49:31;20;18;
46885;PMS5003;32622;48.202;11.326;2023-09-30T11:51:42;19;17;
46885;PMS5003;32622;48.202;11.326;2023-09-30T11:53:45;18;17;
46885;PMS5003;32622;48.202;11.326;2023-09-30T11:55:47;18;16;
46885;PMS5003;32622;48.202;11.326;2023-09-30T11:57:49;17;17;
46885;PMS5003;32622;48.202;11.326;2023-09-30T11:59:51;17;17;
46885;PMS5003;32622;48.202;11.326;2023-09-30T12:01:53;17;17;
46885;PMS5003;32622;48.202;11.326;2023-09-30T12:03:55;16;16;
46885;PMS5003;32622;48.202;11.326;2023-09-30T12:05:57;16;16;
46885;PMS5003;32622;48.202;11.326;2023-09-30T12:07:59;17;17;
46885;PMS5003;32622;48.202;11.326;2023-09-30T12:10:02;16;16;
46885;PMS5003;32622;48.202;11.326;2023-09-30T12:12:04;17;17;
46885;PMS5003;32622;48.202;11.326;2023-09-30T12:14:07;17;17;
46885;PMS5003;32622;48.202;11.326;2023-09-30T12:16:09;17;17;
46885;PMS5003;32622;48.202;11.326;2023-09-30T12:18:11;17;17;
46885;PMS5003;32622;48.202;11.326;2023-09-30T12:20:14;17;17;
46885;PMS5003;32622;48.202;11.326;2023-09-30T12:22:16;16;16;
46885;PMS5003;32622;48.202;11.326;2023-09-30T12:24:18;16;16;
46885;PMS5003;32622;48.202;11.326;2023-09-30T12:26:20;16;16;
46885;PMS5003;32622;48.202;11.326;2023-09-30T12:28:22;16;16;
46885;PMS5003;32622;48.202;11.326;2023-09-30T12:30:25;16;16;
46885;PMS5003;32622;48.202;11.326;2023-09-30T12:32:27;16;16;
46885;PMS5003;32622;48.202;11.326;2023-09-30T12:34:29;16;16;
46885;PMS5003;32622;48.202;11.326;2023-09-30T12:36:32;16;16;
46885;PMS5003;32622;48.202;11.326;2023-09-30T12:38:34;16;16;
46885;PMS5003;32622;48.202;11.326;2023-09-30T12:40:36;17;17;
46885;PMS5003;32622;48.202;11.326;2023-09-30T12:42:38;17;17;
46885;PMS5003;32622;48.202;11.326;2023-09-30T12:44:40;17;17;
46885;PMS5003;32622;48.202;11.326;2023-09-30T12:46:42;17;17;
46885;PMS5003;32622;48.202;11.326;2023-09-30T12:48:44;17;17;
46885;PMS5003;32622;48.202;11.326;2023-09-30T12:50:46;17;17;
46885;PMS5003;32622;48.202;11.326;2023-09-30T12:52:48;17;17;
46885;PMS5003;32622;48.202;11.326;2023-09-30T12:54:50;17;17;
46885;PMS5003;32622;48.202;11.326;2023-09-30T12:56:52;17;17;
46885;PMS5003;32622;48.202;11.326;2023-09-30T12:58:55;18;17;
46885;PMS5003;32622;48.202;11.326;2023-09-30T13:00:57;18;17;
46885;PMS5003;32622;48.202;11.326;2023-09-30T13:02:59;18;17;
46885;PMS5003;32622;48.202;11.326;2023-09-30T13:05:02;19;17;
46885;PMS5003;32622;48.202;11.326;2023-09-30T13:07:04;19;17;
46885;PMS5003;32622;48.202;11.326;2023-09-30T13:09:06;19;17;
46885;PMS5003;32622;48.202;11.326;2023-09-30T13:11:08;18;17;
46885;PMS5003;32622;48.202;11.326;2023-09-30T13:13:11;18;17;
46885;PMS5003;32622;48.202;11.326;2023-09-30T13:15:13;18;17;
46885;PMS5003;32622;48.202;11.326;2023-09-30T13:17:15;17;16;
46885;PMS5003;32622;48.202;11.326;2023-09-30T13:19:17;17;16;
46885;PMS5003;32622;48.202;11.326;2023-09-30T13:21:19;17;16;
46885;PMS5003;32622;48.202;11.326;2023-09-30T13:23:21;18;16;